sensor_id;sensor_type;location;lat;lon;timestamp;pressure;altitude;pressure_sealevel;temperature;humidity
60920;BME280;59039;52.108;19.942;2022-07-21T00:01:39;101033.11;;;22.09;56.23
60920;BME280;59039;52.108;19.942;2022-07-21T00:04:04;101031.79;;;22.08;56.29
60920;BME280;59039;52.108;19.942;2022-07-21T00:06:29;101029.40;;;22.06;56.10
60920;BME280;59039;52.108;19.942;2022-07-21T00:08:54;101026.05;;;22.04;55.98
60920;BME280;59039;52.108;19.942;2022-07-21T00:11:20;101030.06;;;22.00;56.12
60920;BME280;59039;52.108;19.942;2022-07-21T00:13:45;101031.34;;;21.98;56.50
60920;BME280;59039;52.108;19.942;2022-07-21T00:16:10;101035.66;;;21.96;56.59
60920;BME280;59039;52.108;19.942;2022-07-21T00:18:36;101034.58;;;21.95;56.68
60920;BME280;59039;52.108;19.942;2022-07-21T00:21:02;101031.85;;;21.92;56.83
60920;BME280;59039;52.108;19.942;2022-07-21T00:23:27;101029.07;;;21.88;56.83
60920;BME280;59039;52.108;19.942;2022-07-21T00:25:53;101026.92;;;21.84;57.12
60920;BME280;59039;52.108;19.942;2022-07-21T00:28:18;101029.27;;;21.81;57.08
60920;BME280;59039;52.108;19.942;2022-07-21T00:30:44;101030.03;;;21.78;57.40
60920;BME280;59039;52.108;19.942;2022-07-21T00:33:10;101030.09;;;21.75;57.39
60920;BME280;59039;52.108;19.942;2022-07-21T00:35:35;101031.53;;;21.73;57.54
60920;BME280;59039;52.108;19.942;2022-07-21T00:38:01;101034.65;;;21.70;57.21
60920;BME280;59039;52.108;19.942;2022-07-21T00:40:27;101044.23;;;21.68;57.11
60920;BME280;59039;52.108;19.942;2022-07-21T00:42:53;101051.45;;;21.65;57.61
60920;BME280;59039;52.108;19.942;2022-07-21T00:45:18;101054.18;;;21.64;57.94
60920;BME280;59039;52.108;19.942;2022-07-21T00:47:43;101053.36;;;21.62;58.57
60920;BME280;59039;52.108;19.942;2022-07-21T00:50:12;101053.80;;;21.60;58.72
60920;BME280;59039;52.108;19.942;2022-07-21T00:52:38;101056.14;;;21.59;58.68
60920;BME280;59039;52.108;19.942;2022-07-21T00:55:05;101051.88;;;21.56;58.98
60920;BME280;59039;52.108;19.942;2022-07-21T00:57:31;101049.75;;;21.53;59.43
60920;BME280;59039;52.108;19.942;2022-07-21T00:59:57;101050.39;;;21.51;59.12
60920;BME280;59039;52.108;19.942;2022-07-21T01:02:22;101053.63;;;21.49;59.44
60920;BME280;59039;52.108;19.942;2022-07-21T01:04:48;101053.41;;;21.46;59.66
60920;BME280;59039;52.108;19.942;2022-07-21T01:07:13;101054.00;;;21.45;59.72
60920;BME280;59039;52.108;19.942;2022-07-21T01:09:39;101059.73;;;21.42;60.04
60920;BME280;59039;52.108;19.942;2022-07-21T01:12:05;101063.89;;;21.40;59.94
60920;BME280;59039;52.108;19.942;2022-07-21T01:14:31;101067.10;;;21.38;59.85
60920;BME280;59039;52.108;19.942;2022-07-21T01:16:57;101065.52;;;21.36;59.77
60920;BME280;59039;52.108;19.942;2022-07-21T01:19:22;101066.16;;;21.34;59.71
60920;BME280;59039;52.108;19.942;2022-07-21T01:21:48;101067.02;;;21.32;60.28
60920;BME280;59039;52.108;19.942;2022-07-21T01:24:14;101063.60;;;21.30;60.10
60920;BME280;59039;52.108;19.942;2022-07-21T01:29:06;101064.44;;;21.25;60.59
60920;BME280;59039;52.108;19.942;2022-07-21T01:31:31;101064.58;;;21.23;60.66
60920;BME280;59039;52.108;19.942;2022-07-21T01:33:56;101067.12;;;21.20;60.62
60920;BME280;59039;52.108;19.942;2022-07-21T01:36:21;101063.89;;;21.17;60.51
60920;BME280;59039;52.108;19.942;2022-07-21T01:38:47;101062.84;;;21.14;60.46
60920;BME280;59039;52.108;19.942;2022-07-21T01:41:12;101063.61;;;21.11;60.64
60920;BME280;59039;52.108;19.942;2022-07-21T01:43:37;101061.67;;;21.06;60.70
60920;BME280;59039;52.108;19.942;2022-07-21T01:46:04;101064.34;;;21.01;60.64
60920;BME280;59039;52.108;19.942;2022-07-21T01:48:29;101069.05;;;20.98;60.51
60920;BME280;59039;52.108;19.942;2022-07-21T01:50:54;101067.38;;;20.94;60.37
60920;BME280;59039;52.108;19.942;2022-07-21T01:53:20;101063.45;;;20.89;60.17
60920;BME280;59039;52.108;19.942;2022-07-21T01:55:45;101059.85;;;20.81;60.16
60920;BME280;59039;52.108;19.942;2022-07-21T01:58:10;101062.20;;;20.74;60.35
60920;BME280;59039;52.108;19.942;2022-07-21T02:00:36;101058.98;;;20.65;60.32
60920;BME280;59039;52.108;19.942;2022-07-21T02:03:01;101063.46;;;20.57;60.44
60920;BME280;59039;52.108;19.942;2022-07-21T02:05:26;101067.08;;;20.48;60.60
60920;BME280;59039;52.108;19.942;2022-07-21T02:07:52;101070.16;;;20.40;60.77
60920;BME280;59039;52.108;19.942;2022-07-21T02:10:17;101071.22;;;20.32;60.70
60920;BME280;59039;52.108;19.942;2022-07-21T02:12:42;101066.70;;;20.24;60.97
60920;BME280;59039;52.108;19.942;2022-07-21T02:15:08;101061.54;;;20.17;60.87
60920;BME280;59039;52.108;19.942;2022-07-21T02:17:34;101058.39;;;20.11;60.94
60920;BME280;59039;52.108;19.942;2022-07-21T02:19:59;101053.55;;;20.03;61.03
60920;BME280;59039;52.108;19.942;2022-07-21T02:22:24;101050.30;;;19.95;61.55
60920;BME280;59039;52.108;19.942;2022-07-21T02:24:49;101048.56;;;19.89;61.91
60920;BME280;59039;52.108;19.942;2022-07-21T02:27:15;101049.28;;;19.83;61.84
60920;BME280;59039;52.108;19.942;2022-07-21T02:29:40;101045.94;;;19.79;61.87
60920;BME280;59039;52.108;19.942;2022-07-21T02:32:06;101041.46;;;19.75;62.23
60920;BME280;59039;52.108;19.942;2022-07-21T02:34:31;101037.14;;;19.72;62.14
60920;BME280;59039;52.108;19.942;2022-07-21T02:36:56;101039.15;;;19.69;62.19
60920;BME280;59039;52.108;19.942;2022-07-21T02:39:21;101043.36;;;19.67;62.56
60920;BME280;59039;52.108;19.942;2022-07-21T02:41:47;101041.80;;;19.64;62.47
60920;BME280;59039;52.108;19.942;2022-07-21T02:44:12;101039.90;;;19.60;62.69
60920;BME280;59039;52.108;19.942;2022-07-21T02:46:37;101040.02;;;19.58;62.86
60920;BME280;59039;52.108;19.942;2022-07-21T02:49:02;101039.30;;;19.55;63.11
60920;BME280;59039;52.108;19.942;2022-07-21T02:51:28;101036.48;;;19.53;62.82
60920;BME280;59039;52.108;19.942;2022-07-21T02:53:53;101040.35;;;19.48;63.06
60920;BME280;59039;52.108;19.942;2022-07-21T02:56:18;101039.67;;;19.45;63.06
60920;BME280;59039;52.108;19.942;2022-07-21T02:58:43;101041.48;;;19.44;63.53
60920;BME280;59039;52.108;19.942;2022-07-21T03:01:09;101047.63;;;19.42;63.45
60920;BME280;59039;52.108;19.942;2022-07-21T03:03:35;101050.23;;;19.40;63.64
60920;BME280;59039;52.108;19.942;2022-07-21T03:06:01;101051.51;;;19.38;63.75
60920;BME280;59039;52.108;19.942;2022-07-21T03:08:28;101057.18;;;19.39;64.19
60920;BME280;59039;52.108;19.942;2022-07-21T03:10:53;101054.72;;;19.38;64.07
60920;BME280;59039;52.108;19.942;2022-07-21T03:13:19;101055.28;;;19.36;63.96
60920;BME280;59039;52.108;19.942;2022-07-21T03:15:45;101053.28;;;19.34;64.06
60920;BME280;59039;52.108;19.942;2022-07-21T03:18:11;101051.94;;;19.31;64.35
60920;BME280;59039;52.108;19.942;2022-07-21T03:20:38;101051.13;;;19.30;64.58
60920;BME280;59039;52.108;19.942;2022-07-21T03:23:05;101050.94;;;19.29;64.29
60920;BME280;59039;52.108;19.942;2022-07-21T03:25:31;101055.39;;;19.29;64.40
60920;BME280;59039;52.108;19.942;2022-07-21T03:27:57;101052.20;;;19.29;64.86
60920;BME280;59039;52.108;19.942;2022-07-21T03:30:23;101044.98;;;19.29;64.60
60920;BME280;59039;52.108;19.942;2022-07-21T03:32:50;101040.73;;;19.29;64.65
60920;BME280;59039;52.108;19.942;2022-07-21T03:35:15;101042.70;;;19.29;64.56
60920;BME280;59039;52.108;19.942;2022-07-21T03:40:13;101049.31;;;19.25;64.66
60920;BME280;59039;52.108;19.942;2022-07-21T03:42:39;101050.41;;;19.23;65.34
60920;BME280;59039;52.108;19.942;2022-07-21T03:45:06;101051.47;;;19.23;65.82
60920;BME280;59039;52.108;19.942;2022-07-21T03:47:32;101051.91;;;19.25;65.28
60920;BME280;59039;52.108;19.942;2022-07-21T03:49:57;101053.89;;;19.27;65.29
60920;BME280;59039;52.108;19.942;2022-07-21T03:52:22;101052.56;;;19.29;65.55
60920;BME280;59039;52.108;19.942;2022-07-21T03:54:48;101049.06;;;19.32;65.63
60920;BME280;59039;52.108;19.942;2022-07-21T03:57:13;101049.52;;;19.36;65.33
60920;BME280;59039;52.108;19.942;2022-07-21T03:59:38;101047.36;;;19.39;65.38
60920;BME280;59039;52.108;19.942;2022-07-21T04:02:03;101047.62;;;19.45;65.53
60920;BME280;59039;52.108;19.942;2022-07-21T04:04:28;101045.04;;;19.51;65.10
60920;BME280;59039;52.108;19.942;2022-07-21T04:06:54;101042.28;;;19.56;65.45
60920;BME280;59039;52.108;19.942;2022-07-21T04:09:19;101034.27;;;19.61;65.26
60920;BME280;59039;52.108;19.942;2022-07-21T04:11:44;101035.60;;;19.68;64.85
60920;BME280;59039;52.108;19.942;2022-07-21T04:14:10;101034.44;;;19.73;64.81
60920;BME280;59039;52.108;19.942;2022-07-21T04:16:35;101032.13;;;19.76;64.60
60920;BME280;59039;52.108;19.942;2022-07-21T04:19:00;101027.63;;;19.81;64.63
60920;BME280;59039;52.108;19.942;2022-07-21T04:21:25;101031.11;;;19.87;64.52
60920;BME280;59039;52.108;19.942;2022-07-21T04:23:51;101028.65;;;19.93;64.50
60920;BME280;59039;52.108;19.942;2022-07-21T04:26:16;101029.88;;;20.00;64.40
60920;BME280;59039;52.108;19.942;2022-07-21T04:28:41;101029.54;;;20.06;63.98
60920;BME280;59039;52.108;19.942;2022-07-21T04:31:06;101032.88;;;20.11;63.76
60920;BME280;59039;52.108;19.942;2022-07-21T04:33:32;101034.48;;;20.17;63.73
60920;BME280;59039;52.108;19.942;2022-07-21T04:35:57;101040.27;;;20.25;63.24
60920;BME280;59039;52.108;19.942;2022-07-21T04:38:22;101040.61;;;20.32;63.08
60920;BME280;59039;52.108;19.942;2022-07-21T04:40:47;101040.69;;;20.38;62.96
60920;BME280;59039;52.108;19.942;2022-07-21T04:43:12;101042.38;;;20.47;62.85
60920;BME280;59039;52.108;19.942;2022-07-21T04:45:38;101043.92;;;20.56;62.60
60920;BME280;59039;52.108;19.942;2022-07-21T04:48:03;101041.05;;;20.65;62.52
60920;BME280;59039;52.108;19.942;2022-07-21T04:50:29;101041.42;;;20.76;62.68
60920;BME280;59039;52.108;19.942;2022-07-21T04:52:55;101038.54;;;20.87;62.45
60920;BME280;59039;52.108;19.942;2022-07-21T04:55:21;101034.32;;;20.99;62.13
60920;BME280;59039;52.108;19.942;2022-07-21T04:57:49;101034.77;;;21.10;61.77
60920;BME280;59039;52.108;19.942;2022-07-21T05:00:18;101029.17;;;21.21;61.53
60920;BME280;59039;52.108;19.942;2022-07-21T05:02:45;101024.09;;;21.33;61.32
60920;BME280;59039;52.108;19.942;2022-07-21T05:05:11;101020.20;;;21.42;60.86
60920;BME280;59039;52.108;19.942;2022-07-21T05:07:37;101027.27;;;21.54;60.77
60920;BME280;59039;52.108;19.942;2022-07-21T05:10:06;101031.70;;;21.66;60.38
60920;BME280;59039;52.108;19.942;2022-07-21T05:12:32;101030.42;;;21.77;60.01
60920;BME280;59039;52.108;19.942;2022-07-21T05:14:57;101034.04;;;21.88;59.76
60920;BME280;59039;52.108;19.942;2022-07-21T05:17:22;101033.25;;;22.00;59.41
60920;BME280;59039;52.108;19.942;2022-07-21T05:19:48;101031.23;;;22.09;59.03
60920;BME280;59039;52.108;19.942;2022-07-21T05:22:13;101026.54;;;22.19;58.97
60920;BME280;59039;52.108;19.942;2022-07-21T05:24:38;101024.36;;;22.31;58.82
60920;BME280;59039;52.108;19.942;2022-07-21T05:27:03;101023.60;;;22.41;58.26
60920;BME280;59039;52.108;19.942;2022-07-21T05:29:29;101021.16;;;22.52;58.41
60920;BME280;59039;52.108;19.942;2022-07-21T05:31:54;101027.69;;;22.65;57.98
60920;BME280;59039;52.108;19.942;2022-07-21T05:34:19;101025.88;;;22.76;57.80
60920;BME280;59039;52.108;19.942;2022-07-21T05:36:44;101028.46;;;22.88;57.62
60920;BME280;59039;52.108;19.942;2022-07-21T05:39:10;101026.55;;;23.01;56.96
60920;BME280;59039;52.108;19.942;2022-07-21T05:41:35;101027.17;;;23.10;56.59
60920;BME280;59039;52.108;19.942;2022-07-21T05:44:00;101034.64;;;23.23;56.64
60920;BME280;59039;52.108;19.942;2022-07-21T05:46:26;101039.52;;;23.34;56.12
60920;BME280;59039;52.108;19.942;2022-07-21T05:48:53;101041.41;;;23.44;55.82
60920;BME280;59039;52.108;19.942;2022-07-21T05:51:18;101037.14;;;23.54;55.63
60920;BME280;59039;52.108;19.942;2022-07-21T05:53:44;101038.66;;;23.66;54.97
60920;BME280;59039;52.108;19.942;2022-07-21T05:56:09;101029.51;;;23.75;55.13
60920;BME280;59039;52.108;19.942;2022-07-21T05:58:34;101024.89;;;23.88;55.02
60920;BME280;59039;52.108;19.942;2022-07-21T06:01:00;101023.09;;;24.01;54.74
60920;BME280;59039;52.108;19.942;2022-07-21T06:03:25;101027.16;;;24.15;54.11
60920;BME280;59039;52.108;19.942;2022-07-21T06:05:50;101031.33;;;24.29;53.72
60920;BME280;59039;52.108;19.942;2022-07-21T06:08:15;101030.92;;;24.43;53.02
60920;BME280;59039;52.108;19.942;2022-07-21T06:10:41;101031.48;;;24.57;52.86
60920;BME280;59039;52.108;19.942;2022-07-21T06:13:06;101026.11;;;24.71;52.38
60920;BME280;59039;52.108;19.942;2022-07-21T06:15:31;101026.27;;;24.87;51.79
60920;BME280;59039;52.108;19.942;2022-07-21T06:17:57;101026.60;;;25.05;51.69
60920;BME280;59039;52.108;19.942;2022-07-21T06:20:22;101028.13;;;25.24;51.18
60920;BME280;59039;52.108;19.942;2022-07-21T06:22:47;101030.14;;;25.41;50.67
60920;BME280;59039;52.108;19.942;2022-07-21T06:25:12;101029.14;;;25.60;50.02
60920;BME280;59039;52.108;19.942;2022-07-21T06:27:38;101031.18;;;25.80;49.85
60920;BME280;59039;52.108;19.942;2022-07-21T06:30:04;101029.48;;;26.01;49.46
60920;BME280;59039;52.108;19.942;2022-07-21T06:32:30;101037.70;;;26.24;49.22
60920;BME280;59039;52.108;19.942;2022-07-21T06:34:55;101042.03;;;26.48;49.39
60920;BME280;59039;52.108;19.942;2022-07-21T06:37:20;101041.95;;;26.72;48.31
60920;BME280;59039;52.108;19.942;2022-07-21T06:39:45;101045.52;;;26.97;47.26
60920;BME280;59039;52.108;19.942;2022-07-21T06:42:11;101040.42;;;27.24;47.29
60920;BME280;59039;52.108;19.942;2022-07-21T06:44:36;101042.98;;;27.51;47.26
60920;BME280;59039;52.108;19.942;2022-07-21T06:47:01;101042.30;;;27.74;46.07
60920;BME280;59039;52.108;19.942;2022-07-21T06:49:26;101040.30;;;27.96;45.58
60920;BME280;59039;52.108;19.942;2022-07-21T06:51:52;101043.36;;;28.22;45.35
60920;BME280;59039;52.108;19.942;2022-07-21T06:54:17;101038.45;;;28.45;44.28
60920;BME280;59039;52.108;19.942;2022-07-21T06:56:42;101036.54;;;28.70;42.99
60920;BME280;59039;52.108;19.942;2022-07-21T06:59:07;101034.83;;;28.96;44.04
60920;BME280;59039;52.108;19.942;2022-07-21T07:01:33;101031.45;;;29.17;42.88
60920;BME280;59039;52.108;19.942;2022-07-21T07:03:58;101032.16;;;29.38;42.59
60920;BME280;59039;52.108;19.942;2022-07-21T07:06:23;101029.80;;;29.57;42.14
60920;BME280;59039;52.108;19.942;2022-07-21T07:08:48;101028.95;;;29.74;41.94
60920;BME280;59039;52.108;19.942;2022-07-21T07:11:14;101027.05;;;29.89;40.79
60920;BME280;59039;52.108;19.942;2022-07-21T07:13:39;101026.25;;;30.02;40.27
60920;BME280;59039;52.108;19.942;2022-07-21T07:16:04;101027.52;;;30.15;40.29
60920;BME280;59039;52.108;19.942;2022-07-21T07:18:29;101027.84;;;30.27;39.74
60920;BME280;59039;52.108;19.942;2022-07-21T07:20:55;101027.39;;;30.36;38.82
60920;BME280;59039;52.108;19.942;2022-07-21T07:23:20;101030.22;;;30.42;38.35
60920;BME280;59039;52.108;19.942;2022-07-21T07:25:45;101026.35;;;30.55;38.65
60920;BME280;59039;52.108;19.942;2022-07-21T07:28:11;101023.18;;;30.63;37.73
60920;BME280;59039;52.108;19.942;2022-07-21T07:30:36;101022.54;;;30.69;37.77
60920;BME280;59039;52.108;19.942;2022-07-21T07:33:01;101024.59;;;30.79;37.98
60920;BME280;59039;52.108;19.942;2022-07-21T07:35:27;101019.80;;;30.85;37.53
60920;BME280;59039;52.108;19.942;2022-07-21T07:37:52;101016.91;;;30.94;37.76
60920;BME280;59039;52.108;19.942;2022-07-21T07:40:20;101020.88;;;31.03;36.52
60920;BME280;59039;52.108;19.942;2022-07-21T07:42:45;101021.40;;;31.17;36.72
60920;BME280;59039;52.108;19.942;2022-07-21T07:45:12;101026.14;;;31.30;36.79
60920;BME280;59039;52.108;19.942;2022-07-21T07:47:37;101028.80;;;31.40;36.68
60920;BME280;59039;52.108;19.942;2022-07-21T07:50:07;101028.32;;;31.43;36.02
60920;BME280;59039;52.108;19.942;2022-07-21T07:52:33;101028.09;;;31.43;36.15
60920;BME280;59039;52.108;19.942;2022-07-21T07:54:58;101031.80;;;31.42;36.09
60920;BME280;59039;52.108;19.942;2022-07-21T07:57:23;101035.69;;;31.50;35.78
60920;BME280;59039;52.108;19.942;2022-07-21T07:59:49;101033.55;;;31.56;35.80
60920;BME280;59039;52.108;19.942;2022-07-21T08:02:14;101033.21;;;31.63;35.34
60920;BME280;59039;52.108;19.942;2022-07-21T08:04:39;101031.70;;;31.61;34.83
60920;BME280;59039;52.108;19.942;2022-07-21T08:07:04;101035.97;;;31.65;35.23
60920;BME280;59039;52.108;19.942;2022-07-21T08:09:30;101035.86;;;31.67;35.11
60920;BME280;59039;52.108;19.942;2022-07-21T08:11:55;101036.48;;;31.68;34.82
60920;BME280;59039;52.108;19.942;2022-07-21T08:14:20;101038.33;;;31.69;34.20
60920;BME280;59039;52.108;19.942;2022-07-21T08:16:46;101036.08;;;31.71;34.41
60920;BME280;59039;52.108;19.942;2022-07-21T08:19:12;101034.51;;;31.75;34.02
60920;BME280;59039;52.108;19.942;2022-07-21T08:21:37;101035.58;;;31.81;34.15
60920;BME280;59039;52.108;19.942;2022-07-21T08:24:03;101031.91;;;31.86;34.05
60920;BME280;59039;52.108;19.942;2022-07-21T08:26:28;101033.20;;;31.96;33.69
60920;BME280;59039;52.108;19.942;2022-07-21T08:28:55;101038.60;;;32.10;33.81
60920;BME280;59039;52.108;19.942;2022-07-21T08:31:20;101037.70;;;32.17;33.32
60920;BME280;59039;52.108;19.942;2022-07-21T08:33:46;101033.35;;;32.20;33.33
60920;BME280;59039;52.108;19.942;2022-07-21T08:36:11;101035.84;;;32.13;32.81
60920;BME280;59039;52.108;19.942;2022-07-21T08:38:36;101037.41;;;32.12;32.99
60920;BME280;59039;52.108;19.942;2022-07-21T08:41:01;101036.47;;;32.03;32.84
60920;BME280;59039;52.108;19.942;2022-07-21T08:43:27;101033.72;;;31.92;33.27
60920;BME280;59039;52.108;19.942;2022-07-21T08:45:53;101031.46;;;31.80;32.61
60920;BME280;59039;52.108;19.942;2022-07-21T08:48:24;101030.02;;;31.63;33.06
60920;BME280;59039;52.108;19.942;2022-07-21T08:50:49;101028.27;;;31.49;33.72
60920;BME280;59039;52.108;19.942;2022-07-21T08:53:14;101027.40;;;31.35;33.74
60920;BME280;59039;52.108;19.942;2022-07-21T08:55:40;101030.61;;;31.17;33.66
60920;BME280;59039;52.108;19.942;2022-07-21T08:58:08;101028.94;;;30.98;34.15
60920;BME280;59039;52.108;19.942;2022-07-21T09:00:35;101029.88;;;30.79;33.92
60920;BME280;59039;52.108;19.942;2022-07-21T09:03:26;101027.83;;;30.61;34.01
60920;BME280;59039;52.108;19.942;2022-07-21T09:08:34;101029.11;;;30.19;34.45
60920;BME280;59039;52.108;19.942;2022-07-21T09:11:26;101024.64;;;30.03;34.52
60920;BME280;59039;52.108;19.942;2022-07-21T09:14:13;101021.51;;;29.89;34.88
60920;BME280;59039;52.108;19.942;2022-07-21T09:16:41;101018.65;;;29.75;35.20
60920;BME280;59039;52.108;19.942;2022-07-21T09:19:18;101018.52;;;29.66;35.66
60920;BME280;59039;52.108;19.942;2022-07-21T09:21:44;101013.77;;;29.55;34.96
60920;BME280;59039;52.108;19.942;2022-07-21T09:29:55;101004.60;;;29.26;35.88
60920;BME280;59039;52.108;19.942;2022-07-21T09:32:32;101003.17;;;29.17;36.13
60920;BME280;59039;52.108;19.942;2022-07-21T09:35:01;100998.67;;;29.10;36.20
60920;BME280;59039;52.108;19.942;2022-07-21T09:37:27;100994.17;;;29.05;36.36
60920;BME280;59039;52.108;19.942;2022-07-21T09:42:28;100992.95;;;28.95;36.44
60920;BME280;59039;52.108;19.942;2022-07-21T09:44:56;100990.78;;;28.90;36.49
60920;BME280;59039;52.108;19.942;2022-07-21T09:47:25;100989.05;;;28.86;36.40
60920;BME280;59039;52.108;19.942;2022-07-21T09:49:51;100987.61;;;28.83;36.73
60920;BME280;59039;52.108;19.942;2022-07-21T09:52:33;100983.96;;;28.81;36.65
60920;BME280;59039;52.108;19.942;2022-07-21T09:55:00;100980.23;;;28.79;37.28
60920;BME280;59039;52.108;19.942;2022-07-21T09:57:26;100978.35;;;28.73;36.75
60920;BME280;59039;52.108;19.942;2022-07-21T09:59:52;100976.63;;;28.71;36.88
60920;BME280;59039;52.108;19.942;2022-07-21T10:02:24;100975.90;;;28.70;37.15
60920;BME280;59039;52.108;19.942;2022-07-21T10:07:21;100973.52;;;28.67;37.19
60920;BME280;59039;52.108;19.942;2022-07-21T10:09:47;100973.46;;;28.67;36.78
60920;BME280;59039;52.108;19.942;2022-07-21T10:12:14;100975.96;;;28.66;37.14
60920;BME280;59039;52.108;19.942;2022-07-21T10:14:40;100969.52;;;28.66;36.65
60920;BME280;59039;52.108;19.942;2022-07-21T10:17:06;100972.05;;;28.66;36.91
60920;BME280;59039;52.108;19.942;2022-07-21T10:19:40;100969.86;;;28.66;36.10
60920;BME280;59039;52.108;19.942;2022-07-21T10:24:41;100960.90;;;28.65;36.40
60920;BME280;59039;52.108;19.942;2022-07-21T10:27:10;100957.38;;;28.65;35.99
60920;BME280;59039;52.108;19.942;2022-07-21T10:32:22;100955.08;;;28.65;35.03
60920;BME280;59039;52.108;19.942;2022-07-21T10:34:48;100952.18;;;28.65;33.86
60920;BME280;59039;52.108;19.942;2022-07-21T10:45:34;100942.50;;;28.64;36.20
60920;BME280;59039;52.108;19.942;2022-07-21T10:48:02;100942.73;;;28.66;36.77
60920;BME280;59039;52.108;19.942;2022-07-21T10:50:39;100941.08;;;28.66;37.19
60920;BME280;59039;52.108;19.942;2022-07-21T10:53:17;100943.09;;;28.68;37.41
60920;BME280;59039;52.108;19.942;2022-07-21T10:55:48;100943.33;;;28.69;37.52
60920;BME280;59039;52.108;19.942;2022-07-21T10:58:27;100942.04;;;28.69;37.77
60920;BME280;59039;52.108;19.942;2022-07-21T11:01:05;100938.84;;;28.72;37.66
60920;BME280;59039;52.108;19.942;2022-07-21T11:08:32;100935.06;;;28.80;37.38
60920;BME280;59039;52.108;19.942;2022-07-21T11:22:01;100935.22;;;28.96;35.79
60920;BME280;59039;52.108;19.942;2022-07-21T11:24:27;100936.75;;;28.99;35.98
60920;BME280;59039;52.108;19.942;2022-07-21T11:29:27;100936.81;;;29.05;35.50
60920;BME280;59039;52.108;19.942;2022-07-21T11:31:53;100935.59;;;29.07;35.83
60920;BME280;59039;52.108;19.942;2022-07-21T11:34:18;100930.23;;;29.09;35.37
60920;BME280;59039;52.108;19.942;2022-07-21T11:36:44;100937.46;;;29.12;35.38
60920;BME280;59039;52.108;19.942;2022-07-21T11:39:11;100935.58;;;29.14;34.94
60920;BME280;59039;52.108;19.942;2022-07-21T11:41:39;100927.98;;;29.15;34.42
60920;BME280;59039;52.108;19.942;2022-07-21T11:44:05;100923.15;;;29.14;35.14
60920;BME280;59039;52.108;19.942;2022-07-21T11:49:14;100917.47;;;29.18;34.51
60920;BME280;59039;52.108;19.942;2022-07-21T11:51:50;100912.52;;;29.20;34.46
60920;BME280;59039;52.108;19.942;2022-07-21T11:54:24;100902.30;;;29.24;34.77
60920;BME280;59039;52.108;19.942;2022-07-21T11:56:50;100898.67;;;29.27;34.52
60920;BME280;59039;52.108;19.942;2022-07-21T11:59:16;100893.22;;;29.30;34.73
60920;BME280;59039;52.108;19.942;2022-07-21T12:07:11;100901.36;;;29.40;34.33
60920;BME280;59039;52.108;19.942;2022-07-21T12:09:37;100899.70;;;29.42;34.53
60920;BME280;59039;52.108;19.942;2022-07-21T12:12:02;100910.58;;;29.45;34.74
60920;BME280;59039;52.108;19.942;2022-07-21T12:14:42;100910.21;;;29.48;34.40
60920;BME280;59039;52.108;19.942;2022-07-21T12:17:08;100906.63;;;29.50;34.66
60920;BME280;59039;52.108;19.942;2022-07-21T12:19:33;100907.98;;;29.51;34.32
60920;BME280;59039;52.108;19.942;2022-07-21T12:21:58;100904.58;;;29.51;34.59
60920;BME280;59039;52.108;19.942;2022-07-21T12:24:51;100901.00;;;29.52;34.50
60920;BME280;59039;52.108;19.942;2022-07-21T12:27:17;100898.48;;;29.53;34.44
60920;BME280;59039;52.108;19.942;2022-07-21T12:29:43;100898.73;;;29.55;34.38
60920;BME280;59039;52.108;19.942;2022-07-21T12:32:08;100895.70;;;29.56;34.06
60920;BME280;59039;52.108;19.942;2022-07-21T12:34:49;100894.65;;;29.57;34.30
60920;BME280;59039;52.108;19.942;2022-07-21T12:37:15;100895.55;;;29.57;34.11
60920;BME280;59039;52.108;19.942;2022-07-21T12:39:40;100897.61;;;29.58;34.03
60920;BME280;59039;52.108;19.942;2022-07-21T12:42:07;100890.91;;;29.60;34.37
60920;BME280;59039;52.108;19.942;2022-07-21T12:44:34;100886.50;;;29.62;34.32
60920;BME280;59039;52.108;19.942;2022-07-21T12:47:17;100887.85;;;29.64;34.43
60920;BME280;59039;52.108;19.942;2022-07-21T12:49:59;100876.70;;;29.65;33.79
60920;BME280;59039;52.108;19.942;2022-07-21T12:52:25;100879.86;;;29.67;33.83
60920;BME280;59039;52.108;19.942;2022-07-21T12:54:52;100874.80;;;29.68;34.22
60920;BME280;59039;52.108;19.942;2022-07-21T12:57:17;100869.70;;;29.68;34.26
60920;BME280;59039;52.108;19.942;2022-07-21T12:59:42;100868.64;;;29.69;34.11
60920;BME280;59039;52.108;19.942;2022-07-21T13:02:08;100866.40;;;29.69;34.21
60920;BME280;59039;52.108;19.942;2022-07-21T13:04:33;100868.25;;;29.71;34.36
60920;BME280;59039;52.108;19.942;2022-07-21T13:06:59;100869.95;;;29.74;34.45
60920;BME280;59039;52.108;19.942;2022-07-21T13:09:24;100871.04;;;29.78;34.47
60920;BME280;59039;52.108;19.942;2022-07-21T13:11:49;100863.21;;;29.80;34.76
60920;BME280;59039;52.108;19.942;2022-07-21T13:14:14;100862.14;;;29.81;34.84
60920;BME280;59039;52.108;19.942;2022-07-21T13:16:40;100856.70;;;29.81;34.78
60920;BME280;59039;52.108;19.942;2022-07-21T13:19:05;100855.19;;;29.82;34.78
60920;BME280;59039;52.108;19.942;2022-07-21T13:21:30;100851.33;;;29.84;35.00
60920;BME280;59039;52.108;19.942;2022-07-21T13:23:56;100849.71;;;29.85;34.77
60920;BME280;59039;52.108;19.942;2022-07-21T13:26:21;100852.59;;;29.88;34.69
60920;BME280;59039;52.108;19.942;2022-07-21T13:28:46;100847.17;;;29.91;34.41
60920;BME280;59039;52.108;19.942;2022-07-21T13:31:11;100846.86;;;29.94;34.47
60920;BME280;59039;52.108;19.942;2022-07-21T13:33:37;100847.77;;;29.97;34.08
60920;BME280;59039;52.108;19.942;2022-07-21T13:36:03;100847.89;;;30.00;34.29